Time;durP1;ratioP1;P1;durP2;ratioP2;P2;SDS_P1;SDS_P2;PMS_P1;PMS_P2;Temp;Humidity;BMP_temperature;BMP_pressure;BME280_temperature;BME280_humidity;BME280_pressure;Samples;Min_cycle;Max_cycle;Signal;HPM_P1;HPM_P2
2022/12/24 00:02:58;;;;;;;36.73;19.73;;;6.40;99.90;;;;;;10387602;28;20299;-86
2022/12/24 00:08:01;;;;;;;36.27;20.17;;;6.10;99.90;;;;;;10361382;28;20762;-86
2022/12/24 00:13:04;;;;;;;40.53;21.17;;;6.00;99.90;;;;;;10362371;28;20242;-85
2022/12/24 00:18:06;;;;;;;45.47;20.80;;;5.90;99.90;;;;;;10368439;28;20632;-85
2022/12/24 00:23:09;;;;;;;30.53;17.37;;;5.80;99.90;;;;;;10366873;28;20233;-86
2022/12/24 00:28:12;;;;;;;31.73;17.87;;;6.10;99.90;;;;;;10387521;28;20280;-85
2022/12/24 00:33:15;;;;;;;37.87;20.60;;;6.90;99.90;;;;;;10366886;28;20299;-85
2022/12/24 00:38:25;;;;;;;39.93;19.80;;;6.50;99.90;;;;;;10376173;28;20796;-86
2022/12/24 00:43:29;;;;;;;29.00;17.80;;;5.90;99.90;;;;;;10344091;28;20219;-86
2022/12/24 00:48:31;;;;;;;26.37;15.37;;;6.60;99.90;;;;;;10367984;28;20292;-86
2022/12/24 00:53:34;;;;;;;37.33;21.07;;;7.50;99.90;;;;;;10368066;28;20758;-86
2022/12/24 00:58:36;;;;;;;29.70;17.20;;;7.50;99.90;;;;;;10368512;28;20267;-85
2022/12/24 01:03:39;;;;;;;41.27;23.63;;;8.10;99.90;;;;;;10368913;28;20239;-86
2022/12/24 01:08:42;;;;;;;32.97;19.00;;;7.20;99.90;;;;;;10367583;28;20612;-86
2022/12/24 01:13:45;;;;;;;29.80;17.57;;;6.60;99.90;;;;;;10365712;28;20234;-85
2022/12/24 01:18:48;;;;;;;33.20;20.30;;;7.20;99.90;;;;;;10349382;28;20267;-86
2022/12/24 01:23:51;;;;;;;32.57;16.93;;;7.70;99.90;;;;;;10348975;28;20321;-86
2022/12/24 01:28:56;;;;;;;32.60;19.50;;;7.90;99.90;;;;;;10367689;28;20236;-87
2022/12/24 01:33:58;;;;;;;21.60;14.60;;;8.10;99.90;;;;;;10349036;28;20235;-86
2022/12/24 01:39:01;;;;;;;25.10;16.03;;;8.30;99.90;;;;;;10366585;28;20259;-86
2022/12/24 01:44:21;;;;;;;22.37;14.07;;;8.30;99.90;;;;;;10367446;28;20228;-86
2022/12/24 01:49:24;;;;;;;23.00;13.80;;;8.70;99.90;;;;;;10348774;28;20232;-86
2022/12/24 01:54:43;;;;;;;24.17;14.33;;;8.10;99.90;;;;;;10367572;28;20677;-87
2022/12/24 02:00:14;;;;;;;27.60;16.80;;;7.90;99.90;;;;;;10355731;28;20298;-88
2022/12/24 02:05:29;;;;;;;23.63;14.07;;;8.50;99.90;;;;;;10375298;28;20687;-86
2022/12/24 02:10:32;;;;;;;17.80;12.47;;;8.00;99.90;;;;;;10356210;28;20250;-86
2022/12/24 02:15:47;;;;;;;24.93;15.97;;;7.70;99.90;;;;;;10373805;28;20751;-86
2022/12/24 02:21:29;;;;;;;23.67;14.40;;;8.10;99.90;;;;;;10373658;28;20243;-86
2022/12/24 02:26:56;;;;;;;20.83;12.90;;;8.70;99.90;;;;;;10355826;28;20242;-86
2022/12/24 02:32:20;;;;;;;15.07;10.17;;;8.20;99.90;;;;;;10317312;28;20608;-87
2022/12/24 02:37:37;;;;;;;24.37;15.57;;;8.20;99.90;;;;;;10372686;28;20298;-86
2022/12/24 02:42:43;;;;;;;22.63;13.97;;;8.00;99.90;;;;;;10358016;28;20203;-86
2022/12/24 02:47:47;;;;;;;19.87;11.47;;;8.30;99.90;;;;;;10354945;28;20224;-86
2022/12/24 02:52:50;;;;;;;21.77;13.10;;;8.10;99.90;;;;;;10372589;28;20246;-87
2022/12/24 02:58:05;;;;;;;26.70;16.20;;;8.30;99.90;;;;;;10353822;28;20713;-87
2022/12/24 03:03:07;;;;;;;17.03;11.27;;;8.20;99.90;;;;;;10372104;28;20200;-86
2022/12/24 03:08:49;;;;;;;17.13;11.53;;;8.00;99.90;;;;;;10353763;28;20279;-87
2022/12/24 03:13:53;;;;;;;15.33;10.73;;;8.80;99.90;;;;;;10339421;28;20649;-87
2022/12/24 03:18:58;;;;;;;22.03;12.77;;;8.70;99.90;;;;;;10354989;28;20275;-86
2022/12/24 03:24:01;;;;;;;21.27;14.10;;;8.50;99.90;;;;;;10353541;28;20700;-86
2022/12/24 03:29:06;;;;;;;35.87;18.40;;;8.30;99.90;;;;;;10354514;28;20227;-86
2022/12/24 03:34:09;;;;;;;26.30;16.73;;;8.20;99.90;;;;;;10370883;28;20265;-87
2022/12/24 03:39:13;;;;;;;31.30;18.30;;;8.00;99.90;;;;;;10353318;28;20321;-86
2022/12/24 03:44:15;;;;;;;24.27;14.00;;;7.40;99.90;;;;;;10357535;28;20228;-86
2022/12/24 03:49:18;;;;;;;18.07;11.47;;;8.30;99.90;;;;;;10370643;28;20262;-86
2022/12/24 03:54:21;;;;;;;33.30;18.27;;;8.50;99.90;;;;;;10369822;28;20230;-86
2022/12/24 03:59:23;;;;;;;17.27;11.33;;;8.40;99.90;;;;;;10352263;28;20302;-86
2022/12/24 04:04:26;;;;;;;35.70;19.10;;;8.50;99.90;;;;;;10336263;28;20597;-87
2022/12/24 04:09:28;;;;;;;28.43;16.83;;;8.10;99.90;;;;;;10366050;28;20282;-86
2022/12/24 04:14:31;;;;;;;23.27;14.70;;;7.60;99.90;;;;;;10369709;28;20251;-86
2022/12/24 04:19:33;;;;;;;29.73;17.37;;;7.20;99.90;;;;;;10367408;28;20276;-86
2022/12/24 04:24:36;;;;;;;20.87;13.17;;;7.20;99.90;;;;;;10370280;28;20224;-87
2022/12/24 04:29:39;;;;;;;25.73;16.20;;;7.00;99.90;;;;;;10350505;28;20721;-86
2022/12/24 04:34:41;;;;;;;24.87;15.40;;;6.60;99.90;;;;;;10351254;28;20211;-86
2022/12/24 04:39:43;;;;;;;21.10;13.83;;;6.40;99.90;;;;;;10368668;28;20637;-87
2022/12/24 04:44:46;;;;;;;25.93;15.67;;;7.50;99.90;;;;;;10367972;28;20232;-86
2022/12/24 04:49:49;;;;;;;27.93;16.67;;;7.00;99.90;;;;;;10367821;28;20239;-86
2022/12/24 04:54:52;;;;;;;36.30;18.93;;;6.90;99.90;;;;;;10349691;28;20666;-86
2022/12/24 04:59:54;;;;;;;28.43;17.73;;;6.70;99.90;;;;;;10368302;28;20253;-86
2022/12/24 05:04:57;;;;;;;30.93;17.37;;;6.70;99.90;;;;;;10367371;28;20234;-86
2022/12/24 05:09:59;;;;;;;22.00;13.53;;;6.30;99.90;;;;;;10367822;28;20231;-86
2022/12/24 05:15:03;;;;;;;22.40;13.73;;;6.30;99.90;;;;;;10350076;28;20212;-84
2022/12/24 05:20:06;;;;;;;19.07;10.80;;;6.80;99.90;;;;;;10349720;28;20271;-84
2022/12/24 05:30:30;;;;;;;18.03;11.97;;;7.70;99.90;;;;;;10369161;28;20696;-85
2022/12/24 05:35:33;;;;;;;22.93;12.83;;;7.40;99.90;;;;;;10375948;28;20664;-85
2022/12/24 05:40:35;;;;;;;18.63;11.57;;;8.30;99.90;;;;;;10356623;28;20712;-84
2022/12/24 05:45:37;;;;;;;18.00;10.57;;;7.60;99.90;;;;;;10375509;28;20222;-85
2022/12/24 05:50:40;;;;;;;21.50;12.70;;;7.40;99.90;;;;;;10375070;28;20236;-85
2022/12/24 05:55:43;;;;;;;24.53;14.43;;;7.10;99.90;;;;;;10374795;28;20228;-85
2022/12/24 06:00:46;;;;;;;22.27;12.50;;;6.90;99.90;;;;;;10356690;28;20275;-85
2022/12/24 06:05:57;;;;;;;22.93;13.07;;;7.40;99.90;;;;;;10356566;28;20614;-85
2022/12/24 06:11:04;;;;;;;19.23;12.00;;;7.10;99.90;;;;;;10374420;28;20228;-84
2022/12/24 06:16:11;;;;;;;20.07;12.20;;;7.10;99.90;;;;;;10339187;28;20198;-85
2022/12/24 06:21:14;;;;;;;29.00;16.37;;;6.80;99.90;;;;;;10373151;28;20344;-84
2022/12/24 06:26:20;;;;;;;20.03;12.80;;;7.10;99.90;;;;;;10373141;28;20233;-85
2022/12/24 06:31:23;;;;;;;24.00;13.10;;;7.40;99.90;;;;;;10355252;28;20293;-85
2022/12/24 06:36:25;;;;;;;16.97;9.33;;;6.90;99.90;;;;;;10339804;28;20203;-85
2022/12/24 06:41:28;;;;;;;16.97;11.63;;;7.70;99.90;;;;;;10352410;28;20250;-85
2022/12/24 06:46:30;;;;;;;19.10;13.47;;;6.90;99.90;;;;;;10373772;28;20222;-84
2022/12/24 06:51:33;;;;;;;15.53;9.33;;;6.50;99.90;;;;;;10354421;28;20239;-84
2022/12/24 06:56:35;;;;;;;28.10;16.27;;;6.30;99.90;;;;;;10368619;28;20683;-84
2022/12/24 07:01:38;;;;;;;26.37;13.03;;;6.60;99.90;;;;;;10371652;28;20315;-84
2022/12/24 07:06:41;;;;;;;23.47;14.83;;;6.30;99.90;;;;;;10372654;28;20192;-84
2022/12/24 07:11:43;;;;;;;24.57;15.20;;;6.00;99.90;;;;;;10371753;28;20235;-85
2022/12/24 07:16:46;;;;;;;29.77;16.83;;;5.60;99.90;;;;;;10354354;28;20211;-85
2022/12/24 07:21:49;;;;;;;21.97;13.47;;;5.50;99.90;;;;;;10371680;28;20252;-84
2022/12/24 07:26:51;;;;;;;19.57;12.90;;;5.40;99.90;;;;;;10372058;28;20287;-84
2022/12/24 07:31:54;;;;;;;26.53;17.00;;;5.10;99.90;;;;;;10353913;28;20256;-84
2022/12/24 07:36:57;;;;;;;25.83;16.47;;;5.00;99.90;;;;;;10371501;28;20206;-85
2022/12/24 07:41:59;;;;;;;28.40;17.63;;;5.30;99.90;;;;;;10353161;28;20233;-84
2022/12/24 07:47:02;;;;;;;19.07;11.70;;;5.10;99.90;;;;;;10370627;28;20228;-85
2022/12/24 07:52:05;;;;;;;26.30;15.97;;;5.10;99.90;;;;;;10331555;28;20719;-85
2022/12/24 07:57:07;;;;;;;26.87;18.70;;;5.40;99.90;;;;;;10329901;28;20564;-85
2022/12/24 08:02:10;;;;;;;25.90;15.60;;;5.80;99.90;;;;;;10351125;28;20262;-85
2022/12/24 08:07:19;;;;;;;28.97;18.23;;;5.30;99.90;;;;;;10370447;28;20243;-85
2022/12/24 08:12:23;;;;;;;24.57;15.03;;;5.70;99.90;;;;;;10328154;28;20298;-85
2022/12/24 08:17:25;;;;;;;26.97;16.00;;;5.60;99.90;;;;;;10369797;28;20248;-85
2022/12/24 08:22:33;;;;;;;31.10;18.87;;;5.30;99.90;;;;;;10367618;28;20232;-85
2022/12/24 08:27:36;;;;;;;26.43;15.67;;;5.60;99.90;;;;;;10369391;28;20202;-85
2022/12/24 08:32:39;;;;;;;22.60;13.13;;;5.80;99.90;;;;;;10368847;28;20863;-85
2022/12/24 08:37:42;;;;;;;30.83;16.47;;;6.10;99.90;;;;;;10368703;28;20318;-85
2022/12/24 08:42:44;;;;;;;27.20;16.47;;;5.80;99.90;;;;;;10368660;28;20279;-85
2022/12/24 08:47:47;;;;;;;27.20;15.87;;;6.10;99.90;;;;;;10369197;28;20235;-85
2022/12/24 08:52:50;;;;;;;20.30;13.47;;;6.00;99.90;;;;;;10367404;28;20244;-85
2022/12/24 08:57:52;;;;;;;26.47;15.83;;;6.20;99.90;;;;;;10368287;28;20785;-85
2022/12/24 09:02:55;;;;;;;22.03;13.53;;;6.30;99.90;;;;;;10365798;28;20282;-85
2022/12/24 09:07:58;;;;;;;21.27;12.10;;;5.90;99.90;;;;;;10368343;28;20806;-85
2022/12/24 09:13:01;;;;;;;24.13;14.07;;;6.90;99.90;;;;;;10366284;28;20251;-85
2022/12/24 09:18:04;;;;;;;22.77;13.70;;;6.60;99.90;;;;;;10366566;28;20257;-85
2022/12/24 09:23:06;;;;;;;19.70;12.00;;;6.50;99.90;;;;;;10364952;28;20232;-86
2022/12/24 09:28:09;;;;;;;21.13;13.27;;;6.90;99.90;;;;;;10367298;28;20234;-86
2022/12/24 09:33:12;;;;;;;22.10;13.57;;;7.00;99.90;;;;;;10326121;28;20771;-86
2022/12/24 09:38:14;;;;;;;13.20;9.43;;;7.50;99.90;;;;;;10365853;28;20656;-84
2022/12/24 09:43:26;;;;;;;29.30;17.00;;;7.90;99.90;;;;;;10365550;28;20230;-86
2022/12/24 09:48:31;;;;;;;26.30;15.07;;;7.70;99.90;;;;;;10365983;28;20895;-84
2022/12/24 09:53:37;;;;;;;19.83;12.17;;;8.10;99.90;;;;;;10365817;28;20712;-84
2022/12/24 09:58:44;;;;;;;24.50;14.47;;;7.90;99.90;;;;;;10362857;28;20708;-84
2022/12/24 10:03:47;;;;;;;18.93;11.33;;;7.10;99.90;;;;;;10365829;28;20279;-84
2022/12/24 10:09:02;;;;;;;26.50;17.30;;;7.60;99.90;;;;;;10366449;28;20734;-84
2022/12/24 10:14:10;;;;;;;30.87;17.87;;;7.90;99.90;;;;;;10352552;28;20231;-83
2022/12/24 10:19:36;;;;;;;29.47;18.67;;;7.60;99.90;;;;;;10368308;28;20311;-83
2022/12/24 10:24:46;;;;;;;27.87;16.27;;;8.30;99.90;;;;;;10374596;28;20271;-83
2022/12/24 10:29:59;;;;;;;31.30;17.73;;;8.30;99.90;;;;;;10383742;28;20617;-84
2022/12/24 10:35:14;;;;;;;29.20;17.10;;;8.10;99.90;;;;;;10360979;28;20257;-85
2022/12/24 10:40:23;;;;;;;26.43;18.03;;;8.50;99.90;;;;;;10388544;28;20240;-85
2022/12/24 10:45:38;;;;;;;22.70;13.20;;;8.90;99.90;;;;;;10385909;28;20254;-85
2022/12/24 10:51:03;;;;;;;36.70;21.10;;;9.60;99.90;;;;;;10349838;28;20305;-85
2022/12/24 10:56:09;;;;;;;30.80;18.67;;;8.50;99.90;;;;;;10371647;28;20294;-85
2022/12/24 11:01:12;;;;;;;15.37;11.20;;;7.60;99.90;;;;;;10369808;28;20317;-84
2022/12/24 11:06:21;;;;;;;29.23;17.67;;;8.20;99.90;;;;;;10363943;28;20755;-84
2022/12/24 11:11:24;;;;;;;31.40;19.80;;;7.70;99.90;;;;;;10372730;28;20231;-85
2022/12/24 11:16:32;;;;;;;34.03;20.90;;;8.70;99.90;;;;;;10371242;28;20261;-85
2022/12/24 11:21:38;;;;;;;26.33;16.03;;;7.60;99.90;;;;;;10371915;28;20726;-85
2022/12/24 11:26:43;;;;;;;27.60;18.43;;;7.00;99.90;;;;;;10372252;28;20228;-85
2022/12/24 11:31:47;;;;;;;25.20;17.37;;;6.60;99.90;;;;;;10370153;28;20592;-85
2022/12/24 11:36:52;;;;;;;26.97;18.03;;;6.60;99.90;;;;;;10371451;28;20309;-85
2022/12/24 11:41:54;;;;;;;30.80;18.17;;;6.80;99.90;;;;;;10371193;28;20623;-84
2022/12/24 11:46:57;;;;;;;24.47;17.50;;;6.80;99.90;;;;;;10353573;28;20223;-84
2022/12/24 11:52:09;;;;;;;29.10;18.30;;;7.10;99.90;;;;;;10370953;28;20208;-83
2022/12/24 11:57:13;;;;;;;26.37;16.10;;;7.10;99.90;;;;;;10355382;28;20567;-84
2022/12/24 12:02:25;;;;;;;25.50;17.20;;;6.90;99.90;;;;;;10354718;28;20257;-83
2022/12/24 12:07:32;;;;;;;40.57;21.07;;;7.30;99.90;;;;;;10371947;28;20617;-84
2022/12/24 12:13:00;;;;;;;26.47;17.17;;;6.80;99.90;;;;;;10362563;28;20209;-84
2022/12/24 12:18:14;;;;;;;27.67;17.43;;;6.70;99.90;;;;;;10380983;28;20642;-84
2022/12/24 12:23:23;;;;;;;30.20;19.00;;;7.00;99.90;;;;;;10383850;28;20230;-84
2022/12/24 12:28:31;;;;;;;23.17;16.87;;;6.60;99.90;;;;;;10359429;28;20273;-84
2022/12/24 12:33:54;;;;;;;32.00;19.17;;;6.70;99.90;;;;;;10384880;28;20617;-83
2022/12/24 12:38:56;;;;;;;26.80;18.93;;;6.40;99.90;;;;;;10412916;28;20234;-84
2022/12/24 12:44:05;;;;;;;42.20;23.63;;;6.90;99.90;;;;;;10423154;28;20200;-84
2022/12/24 12:49:25;;;;;;;33.67;20.13;;;6.70;99.90;;;;;;10412419;28;20184;-84
2022/12/24 12:54:40;;;;;;;29.23;19.00;;;6.60;99.90;;;;;;10375261;28;20204;-83
2022/12/24 12:59:53;;;;;;;32.23;20.67;;;7.30;99.90;;;;;;10336206;28;20236;-83
2022/12/24 13:05:24;;;;;;;35.60;20.40;;;8.20;99.90;;;;;;10372586;28;20783;-83
2022/12/24 13:11:01;;;;;;;35.40;21.83;;;8.40;99.90;;;;;;10374640;28;20200;-83
2022/12/24 13:16:38;;;;;;;33.70;21.30;;;8.10;99.90;;;;;;10172117;29;20259;-83
2022/12/24 13:21:44;;;;;;;36.20;21.37;;;7.90;99.90;;;;;;10188474;29;20226;-82
2022/12/24 13:27:06;;;;;;;32.57;19.47;;;8.10;99.90;;;;;;10176908;29;20257;-82
2022/12/24 13:32:21;;;;;;;32.23;19.00;;;8.30;99.90;;;;;;10186971;29;20697;-85
2022/12/24 13:37:35;;;;;;;42.23;26.50;;;8.40;99.90;;;;;;10183458;29;20253;-84
2022/12/24 13:42:56;;;;;;;42.90;30.27;;;8.30;99.90;;;;;;10195112;29;20291;-83
2022/12/24 13:48:05;;;;;;;41.07;27.77;;;8.10;99.90;;;;;;10161305;29;20319;-84
2022/12/24 13:53:34;;;;;;;44.20;30.37;;;8.30;99.90;;;;;;10364837;28;20276;-84
2022/12/24 13:58:43;;;;;;;53.20;37.23;;;8.40;99.90;;;;;;10412901;28;20220;-84
2022/12/24 14:03:56;;;;;;;45.47;31.70;;;7.40;99.90;;;;;;10405597;28;20216;-85
2022/12/24 14:09:15;;;;;;;48.73;36.23;;;7.00;99.90;;;;;;10405580;28;20199;-85
2022/12/24 14:14:39;;;;;;;49.60;33.83;;;6.80;99.90;;;;;;10422481;28;20202;-85
2022/12/24 14:19:43;;;;;;;43.00;27.93;;;6.70;99.90;;;;;;10426231;28;20215;-85
2022/12/24 14:25:08;;;;;;;38.37;24.73;;;6.90;99.90;;;;;;10420785;28;20215;-86
2022/12/24 14:30:26;;;;;;;43.43;28.77;;;6.60;99.90;;;;;;10421117;28;20180;-89
2022/12/24 14:35:38;;;;;;;41.73;26.03;;;6.50;99.90;;;;;;10407009;28;20199;-89
2022/12/24 14:41:07;;;;;;;53.00;34.83;;;6.30;99.90;;;;;;10407836;28;20255;-86
2022/12/24 14:46:32;;;;;;;54.43;33.83;;;5.20;99.90;;;;;;10426882;28;20173;-86
2022/12/24 14:51:55;;;;;;;46.43;30.77;;;4.90;99.90;;;;;;10418175;28;20219;-87
2022/12/24 14:57:10;;;;;;;57.27;35.23;;;4.50;99.90;;;;;;10399099;28;20609;-86
2022/12/24 15:02:45;;;;;;;33.17;19.67;;;4.30;99.90;;;;;;10401814;28;20254;-88
2022/12/24 15:24:46;;;;;;;41.53;25.17;;;4.60;99.90;;;;;;10171475;23;20238;-83
2022/12/24 15:29:52;;;;;;;47.70;29.33;;;4.80;99.90;;;;;;10416816;28;20197;-84
2022/12/24 15:34:55;;;;;;;46.33;27.77;;;5.00;99.90;;;;;;10408315;28;20287;-86
2022/12/24 15:40:01;;;;;;;41.70;25.57;;;;;;;;;;10403354;28;20215;-85
2022/12/24 15:45:06;;;;;;;47.17;28.53;;;5.10;99.90;;;;;;10423836;28;20237;-86
2022/12/24 15:50:25;;;;;;;45.40;27.77;;;5.00;99.90;;;;;;10423708;28;20220;-84
2022/12/24 15:55:42;;;;;;;50.23;27.73;;;5.00;99.90;;;;;;10394902;28;20204;-87
2022/12/24 16:01:00;;;;;;;40.57;24.67;;;4.90;99.90;;;;;;10396011;28;20208;-86
2022/12/24 16:06:10;;;;;;;45.10;26.00;;;5.20;99.90;;;;;;10380079;28;20214;-86
2022/12/24 16:11:25;;;;;;;41.60;25.97;;;4.90;99.90;;;;;;10383558;28;20191;-86
2022/12/24 16:16:45;;;;;;;48.27;31.13;;;4.60;99.90;;;;;;10439679;23;20233;-79
2022/12/24 16:21:53;;;;;;;49.93;29.73;;;4.50;99.90;;;;;;10324902;28;20563;-80
2022/12/24 16:26:56;;;;;;;50.07;30.73;;;4.40;99.90;;;;;;10313825;28;20209;-80
2022/12/24 16:31:59;;;;;;;66.33;38.57;;;4.30;99.90;;;;;;10353243;28;20547;-80
2022/12/24 16:37:02;;;;;;;48.20;26.70;;;4.30;99.90;;;;;;10335043;28;20289;-80
2022/12/24 16:47:30;;;;;;;46.17;27.83;;;4.20;99.90;;;;;;10332405;28;20269;-81
2022/12/24 16:52:38;;;;;;;44.93;27.27;;;4.20;99.90;;;;;;10021958;28;9999883;-81
2022/12/24 16:57:42;;;;;;;42.47;26.63;;;4.30;99.90;;;;;;10371162;28;20271;-80
2022/12/24 17:02:46;;;;;;;49.10;29.63;;;4.40;99.90;;;;;;10371757;28;20231;-81
2022/12/24 17:07:49;;;;;;;51.53;32.20;;;4.70;99.90;;;;;;10344719;28;20214;-81
2022/12/24 17:12:52;;;;;;;53.87;32.40;;;4.60;99.90;;;;;;10361098;28;20201;-79
2022/12/24 17:17:55;;;;;;;52.40;34.17;;;4.40;99.90;;;;;;10401608;28;20253;-81
2022/12/24 17:22:58;;;;;;;39.70;24.23;;;4.50;99.90;;;;;;10411706;28;20235;-80
2022/12/24 17:28:00;;;;;;;48.93;31.40;;;4.60;99.90;;;;;;10396208;28;20203;-81
2022/12/24 17:33:03;;;;;;;34.27;21.37;;;4.70;99.90;;;;;;10406165;28;20261;-79
2022/12/24 17:38:12;;;;;;;54.43;31.50;;;5.10;99.90;;;;;;10414688;28;20258;-80
2022/12/24 17:43:14;;;;;;;47.07;29.83;;;5.10;99.90;;;;;;10413921;28;20261;-80
2022/12/24 17:48:17;;;;;;;46.70;30.17;;;5.20;99.90;;;;;;10397293;28;20204;-80
2022/12/24 17:53:20;;;;;;;54.53;32.20;;;5.50;99.90;;;;;;10408863;28;20212;-79
2022/12/24 17:58:24;;;;;;;61.97;35.83;;;5.40;99.90;;;;;;10415851;28;20697;-82
2022/12/24 18:03:27;;;;;;;66.63;41.40;;;5.80;99.90;;;;;;10046039;28;9999747;-81
2022/12/24 18:08:31;;;;;;;69.37;39.87;;;5.40;99.90;;;;;;10413935;28;20648;-81
2022/12/24 18:13:33;;;;;;;57.10;35.10;;;4.90;99.90;;;;;;10396418;28;20756;-81
2022/12/24 18:18:36;;;;;;;57.07;34.47;;;4.90;99.90;;;;;;10370228;28;20649;-82
2022/12/24 18:23:42;;;;;;;58.13;35.10;;;4.80;99.90;;;;;;10373222;28;20442;-81
2022/12/24 18:28:46;;;;;;;54.17;31.90;;;4.70;99.90;;;;;;10372076;28;20348;-81
2022/12/24 18:33:51;;;;;;;59.63;36.57;;;4.60;99.90;;;;;;10348657;28;20239;-81
2022/12/24 18:38:54;;;;;;;65.13;36.23;;;4.70;99.90;;;;;;10373158;28;20591;-81
2022/12/24 18:43:58;;;;;;;62.83;36.97;;;4.70;99.90;;;;;;10330153;28;20251;-81
2022/12/24 18:49:01;;;;;;;58.07;35.13;;;4.60;99.90;;;;;;10334071;28;20229;-81
2022/12/24 18:54:05;;;;;;;62.53;36.50;;;4.60;99.90;;;;;;10057911;28;10001584;-81
2022/12/24 18:59:08;;;;;;;62.00;35.90;;;4.70;99.90;;;;;;10367676;28;20429;-81
2022/12/24 19:04:13;;;;;;;59.40;33.13;;;4.80;99.90;;;;;;10371857;28;20855;-81
2022/12/24 19:09:16;;;;;;;75.27;40.80;;;4.80;99.90;;;;;;10353222;28;20648;-82
2022/12/24 19:14:19;;;;;;;59.40;34.80;;;5.20;99.90;;;;;;10332901;28;20260;-84
2022/12/24 19:19:22;;;;;;;70.73;39.33;;;5.10;99.90;;;;;;10328667;28;20744;-80
2022/12/24 19:24:25;;;;;;;59.50;32.93;;;4.80;99.90;;;;;;10341355;28;20256;-80
2022/12/24 19:29:30;;;;;;;64.77;36.03;;;4.90;99.90;;;;;;10339797;28;20192;-80
2022/12/24 19:34:32;;;;;;;60.20;35.40;;;5.10;99.90;;;;;;10347222;28;20688;-80
2022/12/24 19:39:35;;;;;;;65.60;35.33;;;4.90;99.90;;;;;;10332865;28;20689;-79
2022/12/24 19:44:38;;;;;;;61.27;34.97;;;4.80;99.90;;;;;;10342694;28;20258;-79
2022/12/24 19:49:40;;;;;;;66.00;37.27;;;4.80;99.90;;;;;;10365305;28;20321;-79
2022/12/24 19:54:43;;;;;;;62.30;35.97;;;4.80;99.90;;;;;;10334174;28;20232;-79
2022/12/24 19:59:45;;;;;;;58.43;33.77;;;4.90;99.90;;;;;;10348270;28;20226;-79
2022/12/24 20:04:49;;;;;;;44.30;26.57;;;5.30;99.90;;;;;;10366187;28;20313;-79
2022/12/24 20:09:52;;;;;;;61.67;34.13;;;5.60;99.90;;;;;;10359236;28;20293;-79
2022/12/24 20:14:55;;;;;;;63.77;35.07;;;5.20;99.90;;;;;;10334251;28;20269;-78
2022/12/24 20:19:58;;;;;;;62.43;34.90;;;4.90;99.90;;;;;;10398148;28;20270;-80
2022/12/24 20:25:00;;;;;;;66.60;37.20;;;4.80;99.90;;;;;;10388621;28;20231;-78
2022/12/24 20:30:04;;;;;;;71.70;37.10;;;4.70;99.90;;;;;;10398883;28;20955;-79
2022/12/24 20:35:07;;;;;;;79.53;39.27;;;4.60;99.90;;;;;;10374196;28;20239;-80
2022/12/24 20:40:09;;;;;;;68.27;36.80;;;4.40;99.90;;;;;;10395085;28;20240;-80
2022/12/24 20:45:14;;;;;;;67.97;36.77;;;4.70;99.90;;;;;;10360991;28;20655;-82
2022/12/24 20:50:17;;;;;;;66.53;34.33;;;5.00;99.90;;;;;;10377317;28;20611;-82
2022/12/24 20:55:20;;;;;;;65.67;37.97;;;5.10;99.90;;;;;;10407828;28;20238;-82
2022/12/24 21:00:23;;;;;;;72.87;39.97;;;5.30;99.90;;;;;;10405711;28;20704;-81
2022/12/24 21:05:26;;;;;;;72.50;39.50;;;5.30;99.90;;;;;;10391300;28;20294;-81
2022/12/24 21:10:29;;;;;;;73.13;38.90;;;5.10;99.90;;;;;;10382865;28;20238;-81
2022/12/24 21:15:38;;;;;;;76.60;40.50;;;4.90;99.90;;;;;;10364896;28;20258;-81
2022/12/24 21:20:42;;;;;;;82.20;42.43;;;4.90;99.90;;;;;;10340406;28;20252;-88
2022/12/24 21:25:44;;;;;;;77.60;40.83;;;4.90;99.90;;;;;;10319852;28;20239;-87
2022/12/24 21:30:47;;;;;;;89.00;42.47;;;4.90;99.90;;;;;;10318538;28;20286;-86
2022/12/24 21:42:05;;;;;;;76.53;42.10;;;4.80;99.90;;;;;;10160190;29;20778;-87
2022/12/24 21:47:09;;;;;;;85.80;42.27;;;4.90;99.90;;;;;;10145747;29;20308;-81
2022/12/24 21:52:15;;;;;;;83.00;44.13;;;5.00;99.90;;;;;;10164343;29;20448;-81
2022/12/24 22:02:39;;;;;;;62.83;36.23;;;5.60;99.90;;;;;;10169168;29;20317;-81
2022/12/24 22:13:06;;;;;;;89.43;46.10;;;5.80;99.90;;;;;;10156460;29;20752;-82
2022/12/24 22:18:08;;;;;;;88.97;49.10;;;5.40;99.90;;;;;;10334044;28;20266;-82
2022/12/24 22:23:12;;;;;;;95.87;51.37;;;5.30;99.90;;;;;;10392249;28;20263;-81
2022/12/24 22:28:15;;;;;;;116.07;56.40;;;5.20;99.90;;;;;;10386927;28;20776;-82
2022/12/24 22:33:17;;;;;;;114.83;58.10;;;5.20;99.90;;;;;;10378638;28;20235;-82
2022/12/24 22:38:20;;;;;;;98.63;52.20;;;5.00;99.90;;;;;;10388518;28;20231;-82
2022/12/24 22:43:23;;;;;;;104.77;52.37;;;5.00;99.90;;;;;;10385970;28;20711;-82
2022/12/24 22:48:26;;;;;;;104.97;48.43;;;4.90;99.90;;;;;;10389794;28;20231;-82
2022/12/24 22:53:28;;;;;;;104.57;53.60;;;4.90;99.90;;;;;;10389306;28;20309;-82
2022/12/24 22:58:31;;;;;;;90.53;45.87;;;4.90;99.90;;;;;;10362754;28;20292;-82
2022/12/24 23:03:33;;;;;;;98.77;47.90;;;5.00;99.90;;;;;;10390567;28;20252;-82
2022/12/24 23:08:36;;;;;;;82.60;40.23;;;5.00;99.90;;;;;;10389092;28;20276;-83
2022/12/24 23:19:04;;;;;;;85.33;42.43;;;5.90;99.90;;;;;;10387876;28;20232;-82
2022/12/24 23:24:09;;;;;;;76.87;38.50;;;6.30;99.90;;;;;;10388079;28;20313;-82
2022/12/24 23:29:12;;;;;;;71.10;40.17;;;6.60;99.90;;;;;;10387734;28;20230;-82
2022/12/24 23:34:15;;;;;;;78.53;40.40;;;6.40;99.90;;;;;;10370544;28;20643;-80
2022/12/24 23:39:18;;;;;;;91.30;44.20;;;6.30;99.90;;;;;;10385561;28;20235;-80
2022/12/24 23:44:21;;;;;;;86.37;42.10;;;6.10;99.90;;;;;;10370805;28;20610;-81
2022/12/24 23:49:31;;;;;;;87.60;41.03;;;6.20;99.90;;;;;;10383005;28;20222;-80
2022/12/24 23:54:34;;;;;;;86.13;45.00;;;6.30;99.90;;;;;;10392806;28;20763;-80
2022/12/24 23:59:36;;;;;;;57.63;29.27;;;6.50;99.90;;;;;;10368526;28;20581;-80
